sensor_id;sensor_type;location;lat;lon;timestamp;pressure;altitude;pressure_sealevel;temperature;humidity
70921;BME280;58572;48.110;19.838;2023-12-20T00:01:15;97878.09;;;1.89;76.64
70921;BME280;58572;48.110;19.838;2023-12-20T00:03:42;97840.88;;;1.21;77.87
70921;BME280;58572;48.110;19.838;2023-12-20T00:06:10;97798.06;;;1.63;76.34
70921;BME280;58572;48.110;19.838;2023-12-20T00:08:37;97865.00;;;1.81;76.66
70921;BME280;58572;48.110;19.838;2023-12-20T00:11:04;97873.81;;;1.70;77.57
70921;BME280;58572;48.110;19.838;2023-12-20T00:13:33;97866.38;;;1.72;77.49
70921;BME280;58572;48.110;19.838;2023-12-20T00:15:59;97862.22;;;2.18;75.85
70921;BME280;58572;48.110;19.838;2023-12-20T00:18:26;97868.06;;;2.27;75.16
70921;BME280;58572;48.110;19.838;2023-12-20T00:20:53;97856.16;;;2.22;75.56
70921;BME280;58572;48.110;19.838;2023-12-20T00:23:20;97856.16;;;2.22;75.34
70921;BME280;58572;48.110;19.838;2023-12-20T00:25:48;97860.72;;;2.22;75.22
70921;BME280;58572;48.110;19.838;2023-12-20T00:28:15;97829.19;;;2.06;75.81
70921;BME280;58572;48.110;19.838;2023-12-20T00:30:44;97858.78;;;1.99;75.88
70921;BME280;58572;48.110;19.838;2023-12-20T00:33:11;97837.38;;;2.11;75.41
70921;BME280;58572;48.110;19.838;2023-12-20T00:35:38;97846.38;;;2.28;75.03
70921;BME280;58572;48.110;19.838;2023-12-20T00:38:05;97839.59;;;2.14;75.44
70921;BME280;58572;48.110;19.838;2023-12-20T00:40:32;97835.81;;;2.03;75.70
70921;BME280;58572;48.110;19.838;2023-12-20T00:42:59;97832.19;;;1.98;76.31
70921;BME280;58572;48.110;19.838;2023-12-20T00:45:27;97824.03;;;1.92;75.88
70921;BME280;58572;48.110;19.838;2023-12-20T00:47:55;97823.72;;;1.71;77.16
70921;BME280;58572;48.110;19.838;2023-12-20T00:50:22;97809.56;;;1.93;75.98
70921;BME280;58572;48.110;19.838;2023-12-20T00:52:49;97802.59;;;2.04;76.00
70921;BME280;58572;48.110;19.838;2023-12-20T00:55:16;97803.56;;;2.10;75.56
70921;BME280;58572;48.110;19.838;2023-12-20T00:57:44;97775.53;;;1.82;75.63
70921;BME280;58572;48.110;19.838;2023-12-20T01:00:11;97792.47;;;2.06;75.99
70921;BME280;58572;48.110;19.838;2023-12-20T01:02:39;97710.84;;;1.67;75.08
70921;BME280;58572;48.110;19.838;2023-12-20T01:05:07;97788.19;;;2.17;74.97
70921;BME280;58572;48.110;19.838;2023-12-20T01:07:35;97782.25;;;2.15;75.68
70921;BME280;58572;48.110;19.838;2023-12-20T01:10:02;97778.38;;;1.27;76.50
70921;BME280;58572;48.110;19.838;2023-12-20T01:12:29;97769.81;;;1.90;76.31
70921;BME280;58572;48.110;19.838;2023-12-20T01:14:56;97713.06;;;1.70;75.17
70921;BME280;58572;48.110;19.838;2023-12-20T01:17:24;97694.16;;;1.53;75.54
70921;BME280;58572;48.110;19.838;2023-12-20T01:19:51;97769.72;;;1.97;76.10
70921;BME280;58572;48.110;19.838;2023-12-20T01:22:19;97769.25;;;1.88;76.04
70921;BME280;58572;48.110;19.838;2023-12-20T01:24:46;97765.06;;;1.92;75.97
70921;BME280;58572;48.110;19.838;2023-12-20T01:27:14;97770.66;;;1.49;73.79
70921;BME280;58572;48.110;19.838;2023-12-20T01:29:41;97758.06;;;1.91;76.06
70921;BME280;58572;48.110;19.838;2023-12-20T01:32:08;97754.31;;;1.92;75.69
70921;BME280;58572;48.110;19.838;2023-12-20T01:34:35;97750.59;;;1.93;76.10
70921;BME280;58572;48.110;19.838;2023-12-20T01:37:02;97750.97;;;1.14;77.73
70921;BME280;58572;48.110;19.838;2023-12-20T01:39:31;97738.09;;;1.76;76.34
70921;BME280;58572;48.110;19.838;2023-12-20T01:41:58;97731.34;;;1.73;76.82
70921;BME280;58572;48.110;19.838;2023-12-20T01:44:25;97738.00;;;1.82;76.03
70921;BME280;58572;48.110;19.838;2023-12-20T01:46:52;97720.19;;;1.88;75.58
70921;BME280;58572;48.110;19.838;2023-12-20T01:49:19;97614.69;;;1.24;75.56
70921;BME280;58572;48.110;19.838;2023-12-20T01:51:47;97701.88;;;1.85;76.25
70921;BME280;58572;48.110;19.838;2023-12-20T01:54:15;97705.59;;;1.84;76.24
70921;BME280;58572;48.110;19.838;2023-12-20T01:56:44;97536.25;;;0.70;76.13
70921;BME280;58572;48.110;19.838;2023-12-20T01:59:11;97686.25;;;1.82;75.75
70921;BME280;58572;48.110;19.838;2023-12-20T02:01:38;97679.50;;;1.79;75.94
70921;BME280;58572;48.110;19.838;2023-12-20T02:04:06;97633.59;;;1.41;76.27
70921;BME280;58572;48.110;19.838;2023-12-20T02:06:34;97665.41;;;1.72;76.10
70921;BME280;58572;48.110;19.838;2023-12-20T02:09:01;97673.66;;;1.59;76.21
70921;BME280;58572;48.110;19.838;2023-12-20T02:11:28;97670.75;;;1.60;75.99
70921;BME280;58572;48.110;19.838;2023-12-20T02:13:57;97697.09;;;1.64;76.16
70921;BME280;58572;48.110;19.838;2023-12-20T02:16:24;97670.41;;;1.57;76.23
70921;BME280;58572;48.110;19.838;2023-12-20T02:18:51;97565.84;;;0.87;76.00
70921;BME280;58572;48.110;19.838;2023-12-20T02:21:24;97677.84;;;1.55;76.46
70921;BME280;58572;48.110;19.838;2023-12-20T02:23:52;97676.22;;;1.54;76.17
70921;BME280;58572;48.110;19.838;2023-12-20T02:26:19;97553.75;;;0.54;76.78
70921;BME280;58572;48.110;19.838;2023-12-20T02:28:46;97663.75;;;1.48;76.08
70921;BME280;58572;48.110;19.838;2023-12-20T02:31:13;97674.38;;;1.66;75.73
70921;BME280;58572;48.110;19.838;2023-12-20T02:33:40;97673.19;;;1.62;75.74
70921;BME280;58572;48.110;19.838;2023-12-20T02:36:07;97670.66;;;1.67;75.45
70921;BME280;58572;48.110;19.838;2023-12-20T02:38:36;97655.47;;;1.38;75.46
70921;BME280;58572;48.110;19.838;2023-12-20T02:41:03;97671.09;;;1.64;75.64
70921;BME280;58572;48.110;19.838;2023-12-20T02:43:30;97662.84;;;1.66;75.77
70921;BME280;58572;48.110;19.838;2023-12-20T02:45:57;97635.09;;;1.37;76.09
70921;BME280;58572;48.110;19.838;2023-12-20T02:48:24;97652.47;;;1.81;75.09
70921;BME280;58572;48.110;19.838;2023-12-20T02:50:52;97653.03;;;1.59;75.65
70921;BME280;58572;48.110;19.838;2023-12-20T02:53:19;97648.25;;;1.50;75.92
70921;BME280;58572;48.110;19.838;2023-12-20T02:55:47;97643.28;;;1.77;73.95
70921;BME280;58572;48.110;19.838;2023-12-20T02:58:15;97646.06;;;1.70;73.61
70921;BME280;58572;48.110;19.838;2023-12-20T03:00:43;97656.31;;;1.73;75.35
70921;BME280;58572;48.110;19.838;2023-12-20T03:03:10;97638.72;;;1.77;74.71
70921;BME280;58572;48.110;19.838;2023-12-20T03:05:36;97644.31;;;1.64;75.28
70921;BME280;58572;48.110;19.838;2023-12-20T03:08:03;97645.59;;;1.62;75.44
70921;BME280;58572;48.110;19.838;2023-12-20T03:10:31;97634.66;;;1.75;74.91
70921;BME280;58572;48.110;19.838;2023-12-20T03:12:59;97633.38;;;1.77;75.21
70921;BME280;58572;48.110;19.838;2023-12-20T03:15:26;97636.75;;;1.73;74.67
70921;BME280;58572;48.110;19.838;2023-12-20T03:17:53;97603.06;;;1.42;75.43
70921;BME280;58572;48.110;19.838;2023-12-20T03:20:21;97635.69;;;1.62;75.15
70921;BME280;58572;48.110;19.838;2023-12-20T03:22:48;97628.00;;;1.54;75.76
70921;BME280;58572;48.110;19.838;2023-12-20T03:25:15;97617.28;;;1.66;75.12
70921;BME280;58572;48.110;19.838;2023-12-20T03:27:42;97614.84;;;1.76;74.81
70921;BME280;58572;48.110;19.838;2023-12-20T03:30:11;97617.97;;;1.84;74.33
70921;BME280;58572;48.110;19.838;2023-12-20T03:32:38;97615.88;;;1.86;74.40
70921;BME280;58572;48.110;19.838;2023-12-20T03:35:06;97472.28;;;0.69;75.57
70921;BME280;58572;48.110;19.838;2023-12-20T03:37:33;97518.78;;;1.09;75.19
70921;BME280;58572;48.110;19.838;2023-12-20T03:40:00;97598.53;;;1.89;74.63
70921;BME280;58572;48.110;19.838;2023-12-20T03:42:27;97595.38;;;1.80;74.97
70921;BME280;58572;48.110;19.838;2023-12-20T03:44:54;97597.72;;;1.65;75.24
70921;BME280;58572;48.110;19.838;2023-12-20T03:47:23;97588.97;;;1.81;74.42
70921;BME280;58572;48.110;19.838;2023-12-20T03:49:50;97551.25;;;1.48;74.79
70921;BME280;58572;48.110;19.838;2023-12-20T03:52:17;97578.84;;;1.37;75.97
70921;BME280;58572;48.110;19.838;2023-12-20T03:54:44;97482.56;;;1.18;75.04
70921;BME280;58572;48.110;19.838;2023-12-20T03:57:12;97593.63;;;1.86;74.29
70921;BME280;58572;48.110;19.838;2023-12-20T03:59:39;97575.09;;;1.14;75.76
70921;BME280;58572;48.110;19.838;2023-12-20T04:02:06;97569.41;;;1.11;76.95
70921;BME280;58572;48.110;19.838;2023-12-20T04:04:34;97427.25;;;0.54;75.76
70921;BME280;58572;48.110;19.838;2023-12-20T04:07:02;97561.97;;;0.83;77.67
70921;BME280;58572;48.110;19.838;2023-12-20T04:09:29;97562.09;;;1.53;74.20
70921;BME280;58572;48.110;19.838;2023-12-20T04:11:56;97557.88;;;1.80;74.32
70921;BME280;58572;48.110;19.838;2023-12-20T04:14:23;97557.97;;;1.85;73.98
70921;BME280;58572;48.110;19.838;2023-12-20T04:16:50;97560.22;;;1.65;74.55
70921;BME280;58572;48.110;19.838;2023-12-20T04:19:17;97556.22;;;-0.11;77.80
70921;BME280;58572;48.110;19.838;2023-12-20T04:21:46;97562.25;;;0.93;77.77
70921;BME280;58572;48.110;19.838;2023-12-20T04:24:13;97551.25;;;1.13;76.68
70921;BME280;58572;48.110;19.838;2023-12-20T04:26:40;97553.81;;;1.43;75.87
70921;BME280;58572;48.110;19.838;2023-12-20T04:29:07;97547.63;;;1.54;74.95
70921;BME280;58572;48.110;19.838;2023-12-20T04:31:34;97544.72;;;1.32;75.66
70921;BME280;58572;48.110;19.838;2023-12-20T04:34:01;97549.97;;;1.62;74.59
70921;BME280;58572;48.110;19.838;2023-12-20T04:36:28;97454.16;;;1.29;73.98
70921;BME280;58572;48.110;19.838;2023-12-20T04:38:57;97539.69;;;1.82;73.80
70921;BME280;58572;48.110;19.838;2023-12-20T04:41:25;97531.06;;;1.80;74.54
70921;BME280;58572;48.110;19.838;2023-12-20T04:43:53;97530.91;;;1.99;73.34
70921;BME280;58572;48.110;19.838;2023-12-20T04:46:20;97516.69;;;1.35;75.70
70921;BME280;58572;48.110;19.838;2023-12-20T04:48:47;97387.38;;;0.76;75.83
70921;BME280;58572;48.110;19.838;2023-12-20T04:51:14;97470.47;;;1.79;74.26
70921;BME280;58572;48.110;19.838;2023-12-20T04:53:42;97466.59;;;1.87;73.85
70921;BME280;58572;48.110;19.838;2023-12-20T04:56:10;97480.31;;;1.62;74.81
70921;BME280;58572;48.110;19.838;2023-12-20T04:58:38;97386.03;;;-0.22;77.31
70921;BME280;58572;48.110;19.838;2023-12-20T05:01:05;97502.66;;;0.74;77.45
70921;BME280;58572;48.110;19.838;2023-12-20T05:03:33;97508.19;;;1.14;77.02
70921;BME280;58572;48.110;19.838;2023-12-20T05:06:00;97366.50;;;-0.22;77.10
70921;BME280;58572;48.110;19.838;2023-12-20T05:08:27;97506.50;;;0.78;78.29
70921;BME280;58572;48.110;19.838;2023-12-20T05:10:54;97493.97;;;1.37;76.31
70921;BME280;58572;48.110;19.838;2023-12-20T05:13:23;97492.22;;;1.43;75.52
70921;BME280;58572;48.110;19.838;2023-12-20T05:15:50;97509.56;;;1.52;74.96
70921;BME280;58572;48.110;19.838;2023-12-20T05:18:17;97508.41;;;1.13;75.93
70921;BME280;58572;48.110;19.838;2023-12-20T05:20:44;97500.53;;;0.64;77.48
70921;BME280;58572;48.110;19.838;2023-12-20T05:23:12;97502.72;;;1.21;76.24
70921;BME280;58572;48.110;19.838;2023-12-20T05:25:39;97484.38;;;1.65;75.18
70921;BME280;58572;48.110;19.838;2023-12-20T05:28:08;97391.22;;;0.80;75.16
70921;BME280;58572;48.110;19.838;2023-12-20T05:30:36;97489.28;;;0.86;75.83
70921;BME280;58572;48.110;19.838;2023-12-20T05:33:04;97495.38;;;1.28;75.63
70921;BME280;58572;48.110;19.838;2023-12-20T05:35:31;97441.69;;;0.88;75.69
70921;BME280;58572;48.110;19.838;2023-12-20T05:37:58;97497.06;;;0.76;76.25
70921;BME280;58572;48.110;19.838;2023-12-20T05:40:27;97496.81;;;0.66;77.78
70921;BME280;58572;48.110;19.838;2023-12-20T05:42:54;97357.47;;;0.32;76.06
70921;BME280;58572;48.110;19.838;2023-12-20T05:45:21;97487.63;;;1.67;74.74
70921;BME280;58572;48.110;19.838;2023-12-20T05:47:50;97489.28;;;1.68;74.40
70921;BME280;58572;48.110;19.838;2023-12-20T05:50:17;97475.16;;;1.72;74.17
70921;BME280;58572;48.110;19.838;2023-12-20T05:52:44;97483.47;;;0.89;77.87
70921;BME280;58572;48.110;19.838;2023-12-20T05:55:11;97482.41;;;1.60;75.21
70921;BME280;58572;48.110;19.838;2023-12-20T05:57:38;97416.50;;;1.59;74.21
70921;BME280;58572;48.110;19.838;2023-12-20T06:00:06;97472.38;;;1.67;74.67
70921;BME280;58572;48.110;19.838;2023-12-20T06:02:35;97475.72;;;1.22;76.21
70921;BME280;58572;48.110;19.838;2023-12-20T06:05:04;97443.56;;;1.22;76.37
70921;BME280;58572;48.110;19.838;2023-12-20T06:07:31;97481.63;;;1.48;75.70
70921;BME280;58572;48.110;19.838;2023-12-20T06:09:58;97473.75;;;1.81;74.04
70921;BME280;58572;48.110;19.838;2023-12-20T06:12:25;97467.63;;;1.98;73.48
70921;BME280;58572;48.110;19.838;2023-12-20T06:14:54;97457.84;;;1.51;74.55
70921;BME280;58572;48.110;19.838;2023-12-20T06:17:21;97471.84;;;1.93;73.93
70921;BME280;58572;48.110;19.838;2023-12-20T06:19:48;97460.28;;;1.93;73.94
70921;BME280;58572;48.110;19.838;2023-12-20T06:22:17;97472.25;;;1.74;74.21
70921;BME280;58572;48.110;19.838;2023-12-20T06:24:44;97455.66;;;1.88;74.07
70921;BME280;58572;48.110;19.838;2023-12-20T06:27:11;97457.84;;;1.91;73.98
70921;BME280;58572;48.110;19.838;2023-12-20T06:29:38;97457.09;;;2.08;73.42
70921;BME280;58572;48.110;19.838;2023-12-20T06:32:10;97457.97;;;2.25;73.06
70921;BME280;58572;48.110;19.838;2023-12-20T06:34:37;97443.31;;;1.36;74.75
70921;BME280;58572;48.110;19.838;2023-12-20T06:37:04;97464.41;;;1.84;74.32
70921;BME280;58572;48.110;19.838;2023-12-20T06:39:33;97466.94;;;1.90;73.72
70921;BME280;58572;48.110;19.838;2023-12-20T06:42:00;97474.44;;;1.25;76.82
70921;BME280;58572;48.110;19.838;2023-12-20T06:44:27;97461.34;;;1.52;75.39
70921;BME280;58572;48.110;19.838;2023-12-20T06:46:54;97478.69;;;1.61;75.49
70921;BME280;58572;48.110;19.838;2023-12-20T06:49:21;97482.72;;;1.75;74.80
70921;BME280;58572;48.110;19.838;2023-12-20T06:51:48;97486.94;;;1.59;74.92
70921;BME280;58572;48.110;19.838;2023-12-20T06:54:16;97488.00;;;1.58;75.36
70921;BME280;58572;48.110;19.838;2023-12-20T06:56:44;97494.38;;;1.69;74.67
70921;BME280;58572;48.110;19.838;2023-12-20T06:59:11;97493.34;;;1.70;74.32
70921;BME280;58572;48.110;19.838;2023-12-20T07:01:38;97502.41;;;1.81;74.24
70921;BME280;58572;48.110;19.838;2023-12-20T07:04:05;97503.25;;;1.70;75.17
70921;BME280;58572;48.110;19.838;2023-12-20T07:06:33;97504.50;;;1.79;74.59
70921;BME280;58572;48.110;19.838;2023-12-20T07:09:00;97513.81;;;1.76;74.38
70921;BME280;58572;48.110;19.838;2023-12-20T07:11:27;97514.78;;;1.70;74.91
70921;BME280;58572;48.110;19.838;2023-12-20T07:13:55;97501.44;;;1.87;74.91
70921;BME280;58572;48.110;19.838;2023-12-20T07:16:22;97424.03;;;1.22;75.41
70921;BME280;58572;48.110;19.838;2023-12-20T07:18:50;97482.94;;;1.85;74.66
70921;BME280;58572;48.110;19.838;2023-12-20T07:21:18;97493.91;;;2.24;73.40
70921;BME280;58572;48.110;19.838;2023-12-20T07:23:45;97476.50;;;1.86;73.44
70921;BME280;58572;48.110;19.838;2023-12-20T07:26:12;97503.53;;;1.97;74.26
70921;BME280;58572;48.110;19.838;2023-12-20T07:28:39;97514.53;;;0.90;77.99
70921;BME280;58572;48.110;19.838;2023-12-20T07:31:07;97504.00;;;1.30;76.91
70921;BME280;58572;48.110;19.838;2023-12-20T07:33:35;97495.84;;;1.88;74.79
70921;BME280;58572;48.110;19.838;2023-12-20T07:36:02;97485.19;;;2.05;73.59
70921;BME280;58572;48.110;19.838;2023-12-20T07:38:29;97502.00;;;2.01;73.95
70921;BME280;58572;48.110;19.838;2023-12-20T07:40:57;97495.59;;;2.02;73.32
70921;BME280;58572;48.110;19.838;2023-12-20T07:43:24;97497.03;;;1.81;75.04
70921;BME280;58572;48.110;19.838;2023-12-20T07:45:51;97492.59;;;1.86;74.47
70921;BME280;58572;48.110;19.838;2023-12-20T07:48:20;97493.22;;;2.17;73.94
70921;BME280;58572;48.110;19.838;2023-12-20T07:50:47;97491.50;;;1.99;73.97
70921;BME280;58572;48.110;19.838;2023-12-20T07:53:14;97411.13;;;1.07;75.00
70921;BME280;58572;48.110;19.838;2023-12-20T07:55:41;97500.44;;;0.71;78.60
70921;BME280;58572;48.110;19.838;2023-12-20T07:58:08;97488.50;;;1.44;76.59
70921;BME280;58572;48.110;19.838;2023-12-20T08:00:36;97490.28;;;0.61;78.37
70921;BME280;58572;48.110;19.838;2023-12-20T08:03:04;97476.53;;;1.23;77.96
70921;BME280;58572;48.110;19.838;2023-12-20T08:05:32;97472.88;;;1.92;75.27
70921;BME280;58572;48.110;19.838;2023-12-20T08:07:59;97470.28;;;2.09;74.23
70921;BME280;58572;48.110;19.838;2023-12-20T08:10:27;97471.50;;;2.47;73.08
70921;BME280;58572;48.110;19.838;2023-12-20T08:12:55;97461.44;;;2.54;73.14
70921;BME280;58572;48.110;19.838;2023-12-20T08:15:23;97469.06;;;2.45;72.68
70921;BME280;58572;48.110;19.838;2023-12-20T08:17:50;97405.41;;;1.15;74.69
70921;BME280;58572;48.110;19.838;2023-12-20T08:20:17;97472.28;;;0.80;78.81
70921;BME280;58572;48.110;19.838;2023-12-20T08:22:46;97463.34;;;1.45;78.44
70921;BME280;58572;48.110;19.838;2023-12-20T08:25:13;97362.78;;;1.66;74.42
70921;BME280;58572;48.110;19.838;2023-12-20T08:27:41;97438.28;;;2.65;73.15
70921;BME280;58572;48.110;19.838;2023-12-20T08:30:09;97446.47;;;2.75;72.42
70921;BME280;58572;48.110;19.838;2023-12-20T08:32:36;97430.28;;;2.53;73.03
70921;BME280;58572;48.110;19.838;2023-12-20T08:35:04;97434.19;;;2.79;72.94
70921;BME280;58572;48.110;19.838;2023-12-20T08:37:31;97438.28;;;3.37;70.04
70921;BME280;58572;48.110;19.838;2023-12-20T08:40:01;97383.28;;;2.84;70.57
70921;BME280;58572;48.110;19.838;2023-12-20T08:42:28;97431.56;;;3.56;69.46
70921;BME280;58572;48.110;19.838;2023-12-20T08:44:57;97230.78;;;1.87;70.51
70921;BME280;58572;48.110;19.838;2023-12-20T08:47:24;97435.22;;;3.11;72.12
70921;BME280;58572;48.110;19.838;2023-12-20T08:49:52;97432.81;;;2.76;72.97
70921;BME280;58572;48.110;19.838;2023-12-20T08:52:22;97423.03;;;3.04;71.59
70921;BME280;58572;48.110;19.838;2023-12-20T08:54:49;97428.91;;;2.67;73.50
70921;BME280;58572;48.110;19.838;2023-12-20T08:57:20;97411.34;;;2.76;72.75
70921;BME280;58572;48.110;19.838;2023-12-20T08:59:48;97386.06;;;2.72;72.69
70921;BME280;58572;48.110;19.838;2023-12-20T09:02:16;97420.47;;;3.31;70.73
70921;BME280;58572;48.110;19.838;2023-12-20T09:04:43;97422.72;;;3.17;71.33
70921;BME280;58572;48.110;19.838;2023-12-20T09:07:21;97376.38;;;2.88;71.36
70921;BME280;58572;48.110;19.838;2023-12-20T09:09:48;97426.69;;;3.53;72.06
70921;BME280;58572;48.110;19.838;2023-12-20T09:12:16;97365.75;;;3.37;69.29
70921;BME280;58572;48.110;19.838;2023-12-20T09:14:45;97422.59;;;3.94;70.38
70921;BME280;58572;48.110;19.838;2023-12-20T09:17:13;97409.53;;;2.99;72.38
70921;BME280;58572;48.110;19.838;2023-12-20T09:19:40;97419.81;;;3.40;72.07
70921;BME280;58572;48.110;19.838;2023-12-20T09:22:07;97404.31;;;3.09;73.46
70921;BME280;58572;48.110;19.838;2023-12-20T09:24:34;97400.56;;;3.70;71.06
70921;BME280;58572;48.110;19.838;2023-12-20T09:27:02;97402.91;;;3.23;72.45
70921;BME280;58572;48.110;19.838;2023-12-20T09:29:29;97394.28;;;3.87;70.76
70921;BME280;58572;48.110;19.838;2023-12-20T09:31:57;97341.06;;;3.89;69.32
70921;BME280;58572;48.110;19.838;2023-12-20T09:34:25;97388.50;;;4.00;69.88
70921;BME280;58572;48.110;19.838;2023-12-20T09:36:52;97327.47;;;3.25;70.82
70921;BME280;58572;48.110;19.838;2023-12-20T09:39:20;97383.22;;;4.10;70.35
70921;BME280;58572;48.110;19.838;2023-12-20T09:41:55;97373.91;;;3.91;69.72
70921;BME280;58572;48.110;19.838;2023-12-20T09:44:26;97389.41;;;3.83;70.83
70921;BME280;58572;48.110;19.838;2023-12-20T09:46:55;97400.97;;;3.84;70.79
70921;BME280;58572;48.110;19.838;2023-12-20T09:49:25;97387.00;;;3.60;73.15
70921;BME280;58572;48.110;19.838;2023-12-20T09:51:54;97393.31;;;4.20;70.54
70921;BME280;58572;48.110;19.838;2023-12-20T09:54:23;97396.47;;;3.90;71.81
70921;BME280;58572;48.110;19.838;2023-12-20T09:56:50;97418.06;;;3.51;71.89
70921;BME280;58572;48.110;19.838;2023-12-20T09:59:17;97420.50;;;3.52;72.49
70921;BME280;58572;48.110;19.838;2023-12-20T10:01:45;97302.91;;;2.05;74.74
70921;BME280;58572;48.110;19.838;2023-12-20T10:04:13;97375.09;;;2.57;75.54
70921;BME280;58572;48.110;19.838;2023-12-20T10:06:42;97429.22;;;2.37;78.87
70921;BME280;58572;48.110;19.838;2023-12-20T10:09:10;97440.53;;;2.89;75.87
70921;BME280;58572;48.110;19.838;2023-12-20T10:11:37;97421.53;;;3.30;75.35
70921;BME280;58572;48.110;19.838;2023-12-20T10:14:05;97422.69;;;3.34;74.17
70921;BME280;58572;48.110;19.838;2023-12-20T10:16:33;97416.34;;;3.06;74.64
70921;BME280;58572;48.110;19.838;2023-12-20T10:19:00;97408.06;;;3.08;76.38
70921;BME280;58572;48.110;19.838;2023-12-20T10:21:28;97299.50;;;3.20;73.51
70921;BME280;58572;48.110;19.838;2023-12-20T10:23:57;97400.63;;;4.24;71.35
70921;BME280;58572;48.110;19.838;2023-12-20T10:26:26;97390.19;;;3.57;73.55
70921;BME280;58572;48.110;19.838;2023-12-20T10:28:54;97372.19;;;4.33;72.72
70921;BME280;58572;48.110;19.838;2023-12-20T10:31:30;97368.59;;;4.55;70.77
70921;BME280;58572;48.110;19.838;2023-12-20T10:33:58;97373.28;;;4.37;70.70
70921;BME280;58572;48.110;19.838;2023-12-20T10:36:25;97364.31;;;4.59;70.19
70921;BME280;58572;48.110;19.838;2023-12-20T10:38:54;97333.31;;;4.19;72.71
70921;BME280;58572;48.110;19.838;2023-12-20T10:41:29;97350.88;;;4.64;71.82
70921;BME280;58572;48.110;19.838;2023-12-20T10:43:58;97334.56;;;4.38;72.89
70921;BME280;58572;48.110;19.838;2023-12-20T10:46:26;97321.31;;;4.69;70.61
70921;BME280;58572;48.110;19.838;2023-12-20T10:48:54;97307.81;;;5.11;70.23
70921;BME280;58572;48.110;19.838;2023-12-20T10:51:24;97301.50;;;4.90;70.61
70921;BME280;58572;48.110;19.838;2023-12-20T10:53:55;97288.28;;;5.46;69.13
70921;BME280;58572;48.110;19.838;2023-12-20T10:56:33;97292.34;;;4.86;70.79
70921;BME280;58572;48.110;19.838;2023-12-20T10:59:05;97290.75;;;4.48;71.34
70921;BME280;58572;48.110;19.838;2023-12-20T11:01:41;97231.69;;;4.26;71.88
70921;BME280;58572;48.110;19.838;2023-12-20T11:04:18;97260.00;;;4.86;70.36
70921;BME280;58572;48.110;19.838;2023-12-20T11:06:53;97261.16;;;4.48;71.76
70921;BME280;58572;48.110;19.838;2023-12-20T11:09:28;97241.25;;;4.49;71.91
70921;BME280;58572;48.110;19.838;2023-12-20T11:12:15;97239.00;;;4.36;72.53
70921;BME280;58572;48.110;19.838;2023-12-20T11:14:49;97249.34;;;4.54;71.66
70921;BME280;58572;48.110;19.838;2023-12-20T11:17:25;97239.44;;;4.65;71.31
70921;BME280;58572;48.110;19.838;2023-12-20T11:20:10;97167.91;;;4.27;69.95
70921;BME280;58572;48.110;19.838;2023-12-20T11:22:53;97247.63;;;4.06;73.48
70921;BME280;58572;48.110;19.838;2023-12-20T11:25:24;97259.81;;;4.51;70.24
70921;BME280;58572;48.110;19.838;2023-12-20T11:28:13;97243.38;;;4.10;72.91
70921;BME280;58572;48.110;19.838;2023-12-20T11:30:50;97243.22;;;4.64;71.87
70921;BME280;58572;48.110;19.838;2023-12-20T11:33:24;97236.38;;;4.09;73.79
70921;BME280;58572;48.110;19.838;2023-12-20T11:35:51;97235.75;;;3.38;76.36
70921;BME280;58572;48.110;19.838;2023-12-20T11:38:20;97234.13;;;3.37;77.09
70921;BME280;58572;48.110;19.838;2023-12-20T11:40:49;97228.59;;;3.00;78.80
70921;BME280;58572;48.110;19.838;2023-12-20T11:43:34;97209.03;;;3.04;78.69
70921;BME280;58572;48.110;19.838;2023-12-20T11:46:05;97194.13;;;3.72;76.45
70921;BME280;58572;48.110;19.838;2023-12-20T11:48:35;97124.19;;;3.03;75.64
70921;BME280;58572;48.110;19.838;2023-12-20T11:51:08;97206.09;;;3.87;74.74
70921;BME280;58572;48.110;19.838;2023-12-20T11:53:36;97224.91;;;3.28;77.38
70921;BME280;58572;48.110;19.838;2023-12-20T11:56:04;97216.13;;;2.88;78.88
70921;BME280;58572;48.110;19.838;2023-12-20T11:58:34;97207.44;;;3.57;77.91
70921;BME280;58572;48.110;19.838;2023-12-20T12:01:01;97196.53;;;3.69;76.49
70921;BME280;58572;48.110;19.838;2023-12-20T12:03:30;97197.19;;;4.18;75.21
70921;BME280;58572;48.110;19.838;2023-12-20T12:05:57;97192.38;;;4.20;75.63
70921;BME280;58572;48.110;19.838;2023-12-20T12:08:26;97181.06;;;4.18;75.78
70921;BME280;58572;48.110;19.838;2023-12-20T12:10:53;97179.91;;;4.14;75.86
70921;BME280;58572;48.110;19.838;2023-12-20T12:13:20;97180.59;;;4.31;74.87
70921;BME280;58572;48.110;19.838;2023-12-20T12:15:49;97178.09;;;4.20;75.58
70921;BME280;58572;48.110;19.838;2023-12-20T12:18:17;97181.84;;;4.71;74.17
70921;BME280;58572;48.110;19.838;2023-12-20T12:20:45;97176.34;;;5.13;72.58
70921;BME280;58572;48.110;19.838;2023-12-20T12:23:12;97186.97;;;3.51;78.01
70921;BME280;58572;48.110;19.838;2023-12-20T12:25:39;97182.88;;;4.60;74.56
70921;BME280;58572;48.110;19.838;2023-12-20T12:28:06;97192.56;;;4.56;74.21
70921;BME280;58572;48.110;19.838;2023-12-20T12:30:34;97203.22;;;3.98;76.26
70921;BME280;58572;48.110;19.838;2023-12-20T12:33:03;97210.47;;;3.98;78.09
70921;BME280;58572;48.110;19.838;2023-12-20T12:35:30;97210.72;;;3.96;78.15
70921;BME280;58572;48.110;19.838;2023-12-20T12:37:59;97207.81;;;4.40;77.04
70921;BME280;58572;48.110;19.838;2023-12-20T12:40:28;97205.47;;;4.54;75.51
70921;BME280;58572;48.110;19.838;2023-12-20T12:42:55;97206.25;;;5.11;72.90
70921;BME280;58572;48.110;19.838;2023-12-20T12:45:23;96973.75;;;3.77;72.36
70921;BME280;58572;48.110;19.838;2023-12-20T12:47:50;97157.84;;;4.59;73.26
70921;BME280;58572;48.110;19.838;2023-12-20T12:50:22;97203.50;;;4.96;73.57
70921;BME280;58572;48.110;19.838;2023-12-20T12:52:49;97204.81;;;4.84;73.53
70921;BME280;58572;48.110;19.838;2023-12-20T12:55:16;97221.56;;;4.43;75.54
70921;BME280;58572;48.110;19.838;2023-12-20T12:57:43;97119.66;;;4.10;75.14
70921;BME280;58572;48.110;19.838;2023-12-20T13:00:11;97228.09;;;4.58;74.94
70921;BME280;58572;48.110;19.838;2023-12-20T13:02:39;97226.25;;;5.21;72.35
70921;BME280;58572;48.110;19.838;2023-12-20T13:05:08;97215.16;;;5.17;71.49